createdAt,value
2018-05-06T06:54:10.291Z,16.20
2018-05-06T06:56:37.776Z,16.30
2018-05-06T06:59:05.224Z,16.40
2018-05-06T07:01:32.683Z,16.30
2018-05-06T07:04:00.128Z,16.50
2018-05-06T07:06:27.599Z,16.50
2018-05-06T07:08:55.051Z,16.40
2018-05-06T07:11:22.559Z,16.40
2018-05-06T07:13:49.943Z,16.50
2018-05-06T07:16:17.403Z,16.60
2018-05-06T07:18:49.010Z,16.80
2018-05-06T07:21:18.180Z,17.50
2018-05-06T07:23:45.649Z,17.50
2018-05-06T07:26:13.134Z,17.80
2018-05-06T07:28:41.372Z,18.60
2018-05-06T07:31:08.833Z,18.60
2018-05-06T07:33:36.404Z,18.90
2018-05-06T07:36:03.896Z,19.70
2018-05-06T07:38:32.180Z,19.80
2018-05-06T07:40:59.626Z,19.80
2018-05-06T07:43:32.336Z,21.20
2018-05-06T07:46:09.958Z,21.20
2018-05-06T07:48:37.466Z,22.10
2018-05-06T07:51:04.937Z,22.80
2018-05-06T07:53:32.400Z,22.70
2018-05-06T07:55:59.853Z,21.90
2018-05-06T07:58:27.318Z,22.90
2018-05-06T08:00:55.785Z,23.30
2018-05-06T08:03:23.247Z,23.10
2018-05-06T08:05:50.710Z,24.30
2018-05-06T08:08:18.192Z,24.70
2018-05-06T08:10:45.719Z,24.80
2018-05-06T08:13:13.108Z,25.40
2018-05-06T08:15:40.610Z,25.10
2018-05-06T08:18:08.834Z,25.10
2018-05-06T08:20:36.283Z,25.10
2018-05-06T08:23:03.745Z,24.70
2018-05-06T08:25:31.194Z,25.30
2018-05-06T08:27:58.651Z,25.70
2018-05-06T08:30:26.083Z,26.30
2018-05-06T08:32:53.544Z,26.90
2018-05-06T08:35:20.991Z,26.70
2018-05-06T08:37:48.443Z,26.30
2018-05-06T08:40:15.894Z,26.30
2018-05-06T08:42:44.115Z,27.50
2018-05-06T08:45:11.565Z,27.40
2018-05-06T08:47:39.033Z,26.50
2018-05-06T08:50:06.464Z,26.80
2018-05-06T08:52:33.925Z,27.80
2018-05-06T08:55:01.380Z,28.00
2018-05-06T08:57:28.827Z,28.30
2018-05-06T08:59:56.275Z,28.40
2018-05-06T09:02:24.492Z,27.80
2018-05-06T09:04:51.935Z,27.80
2018-05-06T09:07:19.392Z,27.40
2018-05-06T09:09:46.833Z,27.10
2018-05-06T09:12:14.296Z,27.40
2018-05-06T09:14:41.740Z,27.40
2018-05-06T09:17:09.215Z,27.50
2018-05-06T09:19:36.781Z,27.40
2018-05-06T09:22:04.117Z,28.20
2018-05-06T09:24:31.568Z,28.60
2018-05-06T09:26:59.020Z,29.60
2018-05-06T09:29:26.490Z,29.50
2018-05-06T09:31:53.947Z,30.00
2018-05-06T09:34:21.403Z,29.30
2018-05-06T09:36:48.843Z,28.60
2018-05-06T09:39:16.310Z,28.60
2018-05-06T09:41:43.749Z,29.20
2018-05-06T09:44:11.976Z,30.60
2018-05-06T09:46:39.416Z,30.60
2018-05-06T09:49:06.880Z,30.50
2018-05-06T09:51:34.326Z,29.70
2018-05-06T09:54:01.804Z,29.40
2018-05-06T09:56:29.260Z,30.40
2018-05-06T09:58:56.711Z,30.70
2018-05-06T10:01:24.153Z,30.60
2018-05-06T10:03:51.601Z,30.00
2018-05-06T10:06:19.058Z,31.10
2018-05-06T10:08:46.501Z,30.90
2018-05-06T10:11:14.732Z,31.90
2018-05-06T10:13:42.177Z,31.90
2018-05-06T10:16:09.633Z,31.80
2018-05-06T10:18:37.095Z,31.40
2018-05-06T10:21:04.556Z,31.30
2018-05-06T10:23:32.011Z,30.90
2018-05-06T10:25:59.472Z,30.70
2018-05-06T10:28:26.933Z,30.30
2018-05-06T10:30:54.396Z,31.10
2018-05-06T10:33:21.855Z,31.40
2018-05-06T10:35:49.314Z,32.40
2018-05-06T10:38:16.769Z,32.30
2018-05-06T10:40:44.225Z,31.60
2018-05-06T10:43:11.692Z,31.40
2018-05-06T10:45:39.162Z,31.60
2018-05-06T10:48:07.397Z,30.90
2018-05-06T10:50:44.375Z,30.90
2018-05-06T10:53:11.824Z,31.20
2018-05-06T10:55:40.052Z,32.00
2018-05-06T10:58:08.274Z,32.10
2018-05-06T11:00:35.742Z,32.00
2018-05-06T11:03:03.197Z,32.10
2018-05-06T11:05:30.686Z,32.30
2018-05-06T11:07:58.169Z,32.10
2018-05-06T11:10:26.475Z,31.80
2018-05-06T11:12:53.853Z,31.70
2018-05-06T11:15:21.305Z,32.30
2018-05-06T11:17:49.810Z,32.00
2018-05-06T11:20:17.227Z,32.40
2018-05-06T11:22:45.490Z,32.80
2018-05-06T11:25:12.957Z,32.80
2018-05-06T11:27:40.571Z,32.60
2018-05-06T11:30:08.881Z,32.10
2018-05-06T11:32:36.413Z,32.10
2018-05-06T11:35:03.962Z,33.40
2018-05-06T11:37:32.250Z,33.60
2018-05-06T11:40:00.514Z,33.30
2018-05-06T11:42:28.808Z,34.00
2018-05-06T11:44:56.278Z,33.90
2018-05-06T11:47:23.764Z,33.30
2018-05-06T11:49:51.241Z,33.30
2018-05-06T11:52:18.715Z,33.60
2018-05-06T11:54:46.974Z,33.90
2018-05-06T11:57:14.449Z,33.80
2018-05-06T11:59:42.736Z,33.50
2018-05-06T12:02:10.981Z,32.70
2018-05-06T12:04:38.450Z,32.70
2018-05-06T12:07:05.915Z,32.20
2018-05-06T12:09:33.369Z,33.00
2018-05-06T12:12:01.624Z,33.80
2018-05-06T12:14:29.079Z,33.80
2018-05-06T12:16:56.551Z,33.30
2018-05-06T12:19:24.020Z,33.20
2018-05-06T12:21:51.571Z,33.30
2018-05-06T12:24:19.725Z,32.70
2018-05-06T12:26:47.197Z,32.70
2018-05-06T12:29:14.653Z,33.00
2018-05-06T12:31:42.116Z,32.70
2018-05-06T12:34:09.569Z,32.90
2018-05-06T12:36:37.047Z,32.90
2018-05-06T12:39:05.280Z,33.30
2018-05-06T12:41:32.752Z,33.30
2018-05-06T12:44:00.210Z,33.60
2018-05-06T12:46:27.670Z,33.10
2018-05-06T12:48:55.124Z,32.80
2018-05-06T12:51:22.600Z,33.00
2018-05-06T12:53:50.049Z,32.70
2018-05-06T12:56:17.512Z,32.50
2018-05-06T12:58:44.966Z,33.20
2018-05-06T13:01:12.421Z,32.60
2018-05-06T13:03:39.870Z,32.30
2018-05-06T13:06:07.338Z,32.80
2018-05-06T13:08:34.796Z,33.30
2018-05-06T13:11:02.256Z,33.60
2018-05-06T13:13:29.721Z,34.20
2018-05-06T13:15:57.938Z,33.30
2018-05-06T13:18:25.399Z,33.30
2018-05-06T13:20:52.848Z,32.50
2018-05-06T13:23:20.322Z,32.10
2018-05-06T13:25:47.774Z,32.00
2018-05-06T13:28:15.240Z,32.30
2018-05-06T13:30:42.704Z,32.50
2018-05-06T13:33:10.220Z,32.60
2018-05-06T13:35:37.672Z,32.30
2018-05-06T13:38:05.145Z,31.80
2018-05-06T13:40:32.604Z,33.10
2018-05-06T13:43:00.078Z,32.60
2018-05-06T13:45:27.609Z,33.00
2018-05-06T13:47:55.077Z,32.90
2018-05-06T13:50:22.566Z,32.30
2018-05-06T13:52:50.039Z,31.40
2018-05-06T13:55:17.489Z,31.60
2018-05-06T13:57:44.981Z,31.50
2018-05-06T14:00:13.217Z,31.40
2018-05-06T14:02:40.686Z,31.40
2018-05-06T14:05:08.212Z,32.20
2018-05-06T14:07:35.664Z,32.50
2018-05-06T14:10:03.132Z,32.30
2018-05-06T14:12:30.599Z,32.00
2018-05-06T14:14:58.053Z,31.70
2018-05-06T14:17:25.522Z,31.40
2018-05-06T14:19:52.989Z,31.40
2018-05-06T14:22:20.480Z,31.10
2018-05-06T14:24:47.959Z,30.90
2018-05-06T14:27:15.447Z,31.00
2018-05-06T14:29:42.916Z,30.70
2018-05-06T14:32:10.404Z,30.10
2018-05-06T14:34:38.645Z,29.80
2018-05-06T14:37:06.108Z,29.80
2018-05-06T14:39:33.631Z,30.10
2018-05-06T14:42:01.064Z,30.30
2018-05-06T14:44:28.521Z,30.40
2018-05-06T14:47:07.893Z,30.90
2018-05-06T14:49:35.404Z,30.40
2018-05-06T14:52:03.631Z,29.90
2018-05-06T14:54:31.081Z,29.90
2018-05-06T14:56:58.541Z,29.40
2018-05-06T14:59:26.006Z,29.30
2018-05-06T15:01:53.482Z,29.20
2018-05-06T15:04:20.988Z,29.10
2018-05-06T15:06:48.465Z,29.10
2018-05-06T15:09:15.920Z,28.60
2018-05-06T15:11:43.424Z,28.90
2018-05-06T15:14:11.688Z,28.60
2018-05-06T15:16:39.141Z,28.60
2018-05-06T15:19:06.689Z,28.40
2018-05-06T15:21:34.867Z,27.10
2018-05-06T15:24:02.371Z,27.00
2018-05-06T15:26:29.850Z,27.00
2018-05-06T15:28:57.326Z,26.60
2018-05-06T15:31:24.796Z,26.00
2018-05-06T15:33:52.273Z,25.30
2018-05-06T15:36:20.497Z,24.90
2018-05-06T15:38:48.741Z,24.80
2018-05-06T15:41:17.017Z,24.80
2018-05-06T15:43:44.528Z,24.80
2018-05-06T15:46:11.994Z,24.50
2018-05-06T15:48:39.449Z,24.40
2018-05-06T15:51:06.912Z,24.40
2018-05-06T15:53:34.374Z,24.10
2018-05-06T15:56:02.308Z,23.80
2018-05-06T15:58:29.787Z,23.80
2018-05-06T16:00:57.242Z,23.90
2018-05-06T16:03:36.447Z,23.90
2018-05-06T16:06:05.655Z,26.00
2018-05-06T16:08:33.141Z,23.60
2018-05-06T16:11:00.588Z,23.40
2018-05-06T16:13:28.066Z,23.30
2018-05-06T16:15:55.526Z,23.20
2018-05-06T16:18:23.011Z,23.10
2018-05-06T16:20:50.438Z,23.00
2018-05-06T16:23:18.001Z,22.80
2018-05-06T16:25:45.478Z,22.60
2018-05-06T16:28:13.748Z,22.40
2018-05-06T16:30:41.207Z,22.40
2018-05-06T16:33:09.437Z,22.20
2018-05-06T16:35:36.895Z,22.20
2018-05-06T16:38:04.331Z,22.10
2018-05-06T16:40:31.796Z,22.00
2018-05-06T16:42:59.246Z,22.00
2018-05-06T16:45:26.991Z,22.00
2018-05-06T16:47:54.596Z,22.00
2018-05-06T16:50:23.043Z,21.80
2018-05-06T16:52:50.528Z,21.70
2018-05-06T16:55:17.987Z,21.60
2018-05-06T16:57:45.476Z,21.60
2018-05-06T17:00:15.653Z,21.30
2018-05-06T17:02:43.110Z,21.30
2018-05-06T17:05:10.581Z,21.30
2018-05-06T17:07:38.051Z,21.20
2018-05-06T17:10:05.527Z,21.20
2018-05-06T17:12:33.753Z,21.00
2018-05-06T17:15:01.336Z,21.00
2018-05-06T17:17:28.813Z,21.00
2018-05-06T17:19:56.291Z,20.90
2018-05-06T17:22:24.610Z,20.80
2018-05-06T17:24:52.073Z,20.70
2018-05-06T17:27:19.545Z,20.70
2018-05-06T17:29:47.023Z,20.70
2018-05-06T17:32:14.489Z,20.60
2018-05-06T17:34:41.985Z,20.50
2018-05-06T17:37:09.450Z,20.40
2018-05-06T17:39:36.967Z,20.30
2018-05-06T17:42:04.437Z,20.30
2018-05-06T17:44:32.156Z,20.20
2018-05-06T17:46:59.604Z,20.20
2018-05-06T17:49:27.221Z,20.10
2018-05-06T17:51:54.745Z,20.00
2018-05-06T17:54:23.074Z,19.90
2018-05-06T17:56:50.527Z,19.80
2018-05-06T17:59:17.987Z,19.80
2018-05-06T18:01:45.489Z,19.80
2018-05-06T18:04:12.959Z,19.80
2018-05-06T18:06:41.185Z,19.60
2018-05-06T18:09:08.665Z,19.60
2018-05-06T18:11:36.173Z,19.50
2018-05-06T18:14:03.625Z,19.50
2018-05-06T18:16:31.131Z,19.50
2018-05-06T18:18:58.634Z,19.40
2018-05-06T18:21:27.089Z,19.30
2018-05-06T18:23:54.557Z,19.20
2018-05-06T18:26:22.030Z,19.20
2018-05-06T18:28:49.598Z,19.10
2018-05-06T18:31:17.109Z,19.10
2018-05-06T18:33:44.651Z,19.10
2018-05-06T18:36:12.133Z,19.00
2018-05-06T18:38:39.745Z,18.90
2018-05-06T18:41:07.281Z,18.70
2018-05-06T18:43:35.525Z,18.70
2018-05-06T18:46:02.997Z,18.60
2018-05-06T18:48:30.447Z,18.60
2018-05-06T18:50:57.920Z,18.60
2018-05-06T18:53:26.143Z,18.50
2018-05-06T18:55:53.626Z,18.40
2018-05-06T18:58:21.077Z,18.40
2018-05-06T19:00:49.104Z,18.20
2018-05-06T19:03:18.320Z,17.90
2018-05-06T19:05:45.861Z,17.90
2018-05-06T19:08:13.420Z,17.70
2018-05-06T19:10:41.711Z,17.60
2018-05-06T19:13:09.318Z,17.60
2018-05-06T19:15:37.578Z,17.40
2018-05-06T19:18:05.072Z,17.30
2018-05-06T19:20:32.643Z,17.20
2018-05-06T19:23:00.380Z,17.10
2018-05-06T19:25:28.665Z,16.80
2018-05-06T19:27:57.076Z,16.60
2018-05-06T20:25:07.394Z,15.20
2018-05-06T20:27:34.839Z,15.30
2018-05-06T20:30:02.295Z,15.20
2018-05-06T20:32:29.739Z,15.20
2018-05-06T20:34:57.960Z,14.90
2018-05-06T20:37:25.443Z,14.90
2018-05-06T20:39:52.896Z,14.80
2018-05-06T20:42:20.339Z,14.70
2018-05-06T20:44:47.809Z,14.60
2018-05-06T20:47:15.251Z,14.50
2018-05-06T20:49:42.707Z,14.40
2018-05-06T20:52:10.151Z,14.40
2018-05-06T20:54:37.600Z,14.30
2018-05-06T20:57:05.043Z,14.20
2018-05-06T20:59:32.491Z,14.20
2018-05-06T21:01:59.962Z,14.20
2018-05-06T21:04:28.147Z,13.90
